createdAt,value
2022-10-10T00:00:43.504Z,82.91
2022-10-10T00:01:43.835Z,83.95
2022-10-10T00:02:43.703Z,83.58
2022-10-10T00:03:43.698Z,84.14
2022-10-10T00:04:43.702Z,83.95
2022-10-10T00:05:43.414Z,84.62
2022-10-10T00:06:43.398Z,85
2022-10-10T00:07:43.642Z,84.72
2022-10-10T00:08:43.366Z,85.1
2022-10-10T00:09:43.614Z,85.1
2022-10-10T00:10:43.342Z,85.47
2022-10-10T00:11:43.328Z,85.76
2022-10-10T00:12:43.570Z,86.14
2022-10-10T00:13:43.564Z,86.61
2022-10-10T00:14:43.286Z,87.28
2022-10-10T00:15:48.810Z,87.19
2022-10-10T00:16:43.518Z,87.09
2022-10-10T00:17:43.506Z,87.57
2022-10-10T00:18:43.235Z,87.76
2022-10-10T00:19:43.476Z,87.47
2022-10-10T00:20:43.488Z,87.85
2022-10-10T00:21:43.194Z,87.76
2022-10-10T00:22:43.182Z,87.95
2022-10-10T00:23:43.424Z,88.8
2022-10-10T00:24:43.156Z,88.61
2022-10-10T00:25:43.138Z,88.61
2022-10-10T00:26:43.386Z,89
2022-10-10T00:27:43.368Z,88.9
2022-10-10T00:28:43.185Z,89.18
2022-10-10T00:29:43.342Z,88.8
2022-10-10T00:30:43.075Z,88.71
2022-10-10T00:31:43.435Z,88.52
2022-10-10T00:32:43.303Z,88.04
2022-10-10T00:33:43.032Z,88.13
2022-10-10T00:34:43.277Z,88.46
2022-10-10T00:35:43.263Z,88.75
2022-10-10T00:36:43.274Z,88.75
2022-10-10T00:37:42.977Z,88.42
2022-10-10T00:38:43.243Z,88.46
2022-10-10T00:39:43.203Z,88.18
2022-10-10T00:40:43.194Z,88.46
2022-10-10T00:41:43.185Z,88.18
2022-10-10T00:42:43.167Z,87.8
2022-10-10T00:43:43.156Z,88.18
2022-10-10T00:44:42.883Z,87.71
2022-10-10T00:45:42.867Z,87.71
2022-10-10T00:46:43.113Z,87.99
2022-10-10T00:47:43.123Z,87.99
2022-10-10T00:48:43.084Z,88.28
2022-10-10T00:49:42.814Z,88.09
2022-10-10T00:50:42.801Z,87.71
2022-10-10T00:51:42.788Z,88.09
2022-10-10T00:52:43.057Z,87.8
2022-10-10T00:53:43.018Z,87.99
2022-10-10T00:54:42.749Z,88.28
2022-10-10T00:55:42.735Z,89.32
2022-10-10T00:56:42.721Z,89.51
2022-10-10T00:57:42.963Z,89.23
2022-10-10T00:58:42.695Z,89.89
2022-10-10T00:59:42.943Z,89.61
2022-10-10T01:00:43.080Z,90.28
2022-10-10T01:01:42.655Z,89.89
2022-10-10T01:02:42.897Z,90.18
2022-10-10T01:03:42.669Z,89.42
2022-10-10T01:04:47.409Z,89.89
2022-10-10T01:05:42.598Z,89.89
2022-10-10T01:06:42.862Z,89.99
2022-10-10T01:07:42.825Z,90.56
2022-10-10T01:08:42.844Z,90.75
2022-10-10T01:09:42.550Z,90.56
2022-10-10T01:10:42.791Z,90.75
2022-10-10T01:11:42.777Z,91.03
2022-10-10T01:12:42.505Z,90.94
2022-10-10T01:13:42.757Z,90.94
2022-10-10T01:14:42.477Z,91.61
2022-10-10T01:15:42.466Z,91.7
2022-10-10T01:16:42.708Z,91.8
2022-10-10T01:17:42.698Z,91.7
2022-10-10T01:18:42.426Z,91.42
2022-10-10T01:19:42.438Z,91.7
2022-10-10T01:20:42.655Z,91.8
2022-10-10T01:21:42.642Z,91.8
2022-10-10T01:22:42.628Z,91.22
2022-10-10T01:23:42.617Z,91.7
2022-10-10T01:24:42.624Z,91.32
2022-10-10T01:25:42.335Z,91.7
2022-10-10T01:26:42.579Z,91.7
2022-10-10T01:27:42.312Z,91.03
2022-10-10T01:28:42.492Z,91.42
2022-10-10T01:29:42.536Z,91.7
2022-10-10T01:30:42.520Z,91.32
2022-10-10T01:31:42.512Z,91.99
2022-10-10T01:32:42.237Z,92.36
2022-10-10T01:33:42.487Z,92.27
2022-10-10T01:34:42.212Z,92.18
2022-10-10T01:35:42.225Z,92.18
2022-10-10T01:36:42.442Z,91.8
2022-10-10T01:37:42.432Z,91.94
2022-10-10T01:38:42.415Z,91.99
2022-10-10T01:39:42.144Z,91.89
2022-10-10T01:40:42.414Z,91.51
2022-10-10T01:41:42.120Z,91.42
2022-10-10T01:42:42.108Z,91.7
2022-10-10T01:43:42.094Z,91.42
2022-10-10T01:44:42.341Z,91.65
2022-10-10T01:45:42.324Z,91.51
2022-10-10T01:46:42.306Z,91.13
2022-10-10T01:47:42.041Z,91.7
2022-10-10T01:48:42.281Z,91.51
2022-10-10T01:49:42.270Z,91.51
2022-10-10T01:50:42.259Z,91.32
2022-10-10T01:51:42.690Z,90.99
2022-10-10T01:52:42.387Z,90.42
2022-10-10T01:53:42.629Z,90.42
2022-10-10T01:54:42.355Z,90.13
2022-10-10T01:55:42.601Z,90.13
2022-10-10T01:56:42.610Z,90.13
2022-10-10T01:57:42.579Z,89.94
2022-10-10T01:58:42.305Z,89.94
2022-10-10T01:59:42.550Z,90.32
2022-10-10T02:00:42.378Z,90.03
2022-10-10T02:01:42.528Z,90.03
2022-10-10T02:02:42.255Z,89.94
2022-10-10T02:03:42.237Z,90.03
2022-10-10T02:04:42.228Z,90.22
2022-10-10T02:05:42.474Z,89.37
2022-10-10T02:06:42.201Z,89.37
2022-10-10T02:07:42.480Z,88.99
2022-10-10T02:08:42.178Z,89.47
2022-10-10T02:09:42.428Z,89.56
2022-10-10T02:10:42.158Z,90.03
2022-10-10T02:11:42.137Z,89.75
2022-10-10T02:12:42.410Z,90.13
2022-10-10T02:13:43.108Z,90.61
2022-10-10T02:14:43.093Z,90.61
2022-10-10T02:15:43.082Z,90.7
2022-10-10T02:16:43.070Z,90.99
2022-10-10T02:17:43.060Z,91.17
2022-10-10T02:18:42.785Z,91.17
2022-10-10T02:19:42.783Z,90.99
2022-10-10T02:20:43.017Z,91.08
2022-10-10T02:21:43.007Z,90.8
2022-10-10T02:22:42.990Z,90.99
2022-10-10T02:23:42.998Z,90.8
2022-10-10T02:24:42.973Z,91.08
2022-10-10T02:25:42.700Z,90.89
2022-10-10T02:26:42.943Z,90.99
2022-10-10T02:27:42.921Z,90.99
2022-10-10T02:28:43.033Z,90.89
2022-10-10T02:29:42.905Z,91.08
2022-10-10T02:30:42.631Z,91.27
2022-10-10T02:31:42.884Z,91.27
2022-10-10T02:32:42.864Z,90.7
2022-10-10T02:33:42.845Z,90.61
2022-10-10T02:34:42.833Z,90.61
2022-10-10T02:35:42.819Z,90.89
2022-10-10T02:36:42.811Z,91.27
2022-10-10T02:37:42.795Z,91.27
2022-10-10T02:38:42.785Z,90.8
2022-10-10T02:39:42.536Z,90.42
2022-10-10T02:40:42.498Z,90.42
2022-10-10T02:41:42.741Z,90.13
2022-10-10T02:42:42.476Z,89.75
2022-10-10T02:43:42.716Z,89.84
2022-10-10T02:44:42.731Z,89.56
2022-10-10T02:45:42.693Z,89.75
2022-10-10T02:46:42.683Z,89.84
2022-10-10T02:47:42.665Z,89.47
2022-10-10T02:48:42.396Z,89.08
2022-10-10T02:49:42.640Z,89.18
2022-10-10T02:50:42.372Z,88.51
2022-10-10T02:51:42.610Z,89.27
2022-10-10T02:52:42.371Z,89.47
2022-10-10T02:53:42.593Z,89.47
2022-10-10T02:54:42.316Z,89.27
2022-10-10T02:55:42.587Z,88.99
2022-10-10T02:56:42.555Z,89.27
2022-10-10T02:57:42.536Z,89.37
2022-10-10T02:58:42.268Z,89.27
2022-10-10T02:59:42.514Z,89.84
2022-10-10T03:00:42.641Z,89.18
2022-10-10T03:01:42.232Z,89.08
2022-10-10T03:02:42.217Z,89.18
2022-10-10T03:03:42.203Z,89.27
2022-10-10T03:04:42.445Z,88.99
2022-10-10T03:05:42.438Z,89.27
2022-10-10T03:06:42.167Z,89.56
2022-10-10T03:07:42.159Z,89.56
2022-10-10T03:08:42.395Z,90.03
2022-10-10T03:09:42.128Z,90.13
2022-10-10T03:10:42.115Z,90.13
2022-10-10T03:11:42.382Z,90.22
2022-10-10T03:12:42.089Z,89.94
2022-10-10T03:13:42.077Z,90.13
2022-10-10T03:14:42.065Z,89.84
2022-10-10T03:15:42.051Z,90.32
2022-10-10T03:16:42.316Z,90.51
2022-10-10T03:17:42.285Z,90.13
2022-10-10T03:18:42.265Z,90.61
2022-10-10T03:19:41.999Z,90.61
2022-10-10T03:20:41.985Z,90.42
2022-10-10T03:21:42.228Z,90.22
2022-10-10T03:22:42.226Z,90.8
2022-10-10T03:23:42.209Z,91.17
2022-10-10T03:24:41.935Z,91.17
2022-10-10T03:25:41.926Z,90.89
2022-10-10T03:26:42.161Z,91.08
2022-10-10T03:27:42.174Z,90.89
2022-10-10T03:28:42.229Z,91.27
2022-10-10T03:29:42.133Z,90.99
2022-10-10T03:30:41.861Z,90.94
2022-10-10T03:31:41.843Z,91.27
2022-10-10T03:49:16.090Z,93.51
2022-10-10T03:50:15.986Z,93.32
2022-10-10T03:51:15.975Z,93.7
2022-10-10T03:52:15.953Z,93.7
2022-10-10T03:53:15.933Z,94.56
2022-10-10T03:54:15.668Z,94.27
2022-10-10T03:55:15.654Z,94.98
2022-10-10T03:56:15.894Z,95.6
2022-10-10T03:57:15.873Z,96.26
2022-10-10T03:58:17.256Z,96.41
2022-10-10T03:59:15.604Z,97.55
2022-10-10T04:00:15.833Z,98.69
2022-10-10T04:01:15.926Z,98.6
2022-10-10T04:02:15.550Z,98.97
2022-10-10T04:03:15.565Z,98.88
2022-10-10T04:04:15.774Z,98.88
2022-10-10T04:05:15.807Z,99.74
2022-10-10T04:06:15.747Z,99.55
2022-10-10T04:07:15.735Z,99.99
2022-10-10T04:08:15.721Z,99.99
2022-10-10T04:09:15.702Z,99.99
2022-10-10T04:10:15.436Z,99.99
2022-10-10T04:11:15.677Z,99.99
2022-10-10T04:12:15.663Z,99.99
2022-10-10T04:13:15.393Z,99.99
2022-10-10T04:14:15.640Z,99.99
2022-10-10T04:15:15.620Z,99.99
2022-10-10T04:16:15.610Z,99.99
2022-10-10T04:17:15.592Z,99.99
2022-10-10T04:18:15.583Z,99.99
2022-10-10T04:19:15.565Z,99.99
2022-10-10T04:20:15.298Z,99.99
2022-10-10T04:21:15.590Z,99.99
2022-10-10T04:22:15.527Z,99.99
2022-10-10T04:23:15.518Z,99.99
2022-10-10T04:24:15.242Z,99.99
2022-10-10T04:25:15.486Z,99.99
2022-10-10T04:26:15.216Z,99.99
2022-10-10T04:27:15.461Z,99.99
2022-10-10T04:28:15.564Z,99.99
2022-10-10T04:29:15.177Z,99.99
2022-10-10T04:30:15.166Z,99.99
2022-10-10T04:31:15.407Z,99.99
2022-10-10T04:32:15.396Z,99.99
2022-10-10T04:33:15.121Z,99.99
2022-10-10T04:34:15.111Z,99.99
2022-10-10T04:35:15.098Z,99.99
2022-10-10T04:36:15.340Z,99.99
2022-10-10T04:37:15.381Z,99.99
2022-10-10T04:38:15.315Z,99.99
2022-10-10T04:39:15.314Z,99.99
2022-10-10T04:40:15.285Z,99.99
2022-10-10T04:41:15.275Z,99.99
2022-10-10T04:42:15.003Z,99.99
2022-10-10T04:43:15.247Z,99.99
2022-10-10T04:44:14.976Z,99.99
2022-10-10T04:45:14.967Z,99.99
2022-10-10T04:46:15.203Z,99.99
2022-10-10T04:47:15.191Z,99.99
2022-10-10T04:48:15.177Z,99.99
2022-10-10T04:49:14.911Z,99.99
2022-10-10T04:50:15.153Z,99.99
2022-10-10T04:51:14.886Z,99.99
2022-10-10T04:52:14.866Z,99.99
2022-10-10T04:53:15.567Z,99.99
2022-10-10T04:54:16.289Z,99.99
2022-10-10T04:55:16.284Z,99.99
2022-10-10T04:56:16.266Z,99.99
2022-10-10T04:57:15.999Z,99.99
2022-10-10T04:58:16.236Z,99.99
2022-10-10T04:59:16.227Z,99.99
2022-10-10T05:00:15.971Z,99.99
2022-10-10T05:01:16.315Z,99.99
2022-10-10T05:02:15.930Z,99.99
2022-10-10T05:03:16.172Z,99.99
2022-10-10T05:04:16.160Z,99.99
2022-10-10T05:05:15.889Z,99.99
2022-10-10T05:06:16.279Z,99.99
2022-10-10T05:07:16.122Z,99.99
2022-10-10T05:08:15.847Z,99.99
2022-10-10T05:09:16.139Z,99.99
2022-10-10T05:10:15.821Z,99.99
2022-10-10T05:11:16.066Z,99.99
2022-10-10T05:12:16.049Z,99.99
2022-10-10T05:13:16.038Z,99.99
2022-10-10T05:14:16.022Z,99.99
2022-10-10T05:15:15.755Z,99.99
2022-10-10T05:16:16.128Z,99.99
2022-10-10T05:17:15.726Z,99.99
2022-10-10T05:18:15.968Z,99.99
2022-10-10T05:19:15.701Z,99.99
2022-10-10T05:20:15.684Z,99.99
2022-10-10T05:21:15.672Z,99.99
2022-10-10T05:22:15.675Z,99.99
2022-10-10T05:23:15.664Z,99.99
2022-10-10T05:24:15.884Z,99.99
2022-10-10T05:25:15.926Z,99.99
2022-10-10T05:26:15.859Z,99.99
2022-10-10T05:27:15.845Z,99.99
2022-10-10T05:28:15.647Z,99.99
2022-10-10T05:29:15.825Z,99.99
2022-10-10T05:30:15.548Z,99.99
2022-10-10T05:31:15.796Z,99.99
2022-10-10T05:32:15.778Z,99.99
2022-10-10T05:33:15.762Z,99.99
2022-10-10T05:34:15.756Z,99.99
2022-10-10T05:35:15.738Z,99.99
2022-10-10T05:36:15.467Z,99.99
2022-10-10T05:37:16.214Z,99.99
2022-10-10T05:38:15.947Z,99.99
2022-10-10T05:39:15.926Z,99.99
2022-10-10T05:40:15.915Z,99.99
2022-10-10T05:41:16.211Z,99.99
2022-10-10T05:42:16.144Z,99.99
2022-10-10T05:43:16.127Z,99.99
2022-10-10T05:44:16.118Z,99.99
2022-10-10T05:45:15.844Z,99.99
2022-10-10T05:46:16.097Z,99.99
2022-10-10T05:47:16.076Z,99.99
2022-10-10T05:48:16.066Z,99.99
2022-10-10T05:49:15.795Z,99.99
2022-10-10T05:50:15.781Z,99.99
2022-10-10T05:51:15.767Z,99.99
2022-10-10T05:52:16.011Z,99.99
2022-10-10T05:53:15.993Z,99.99
2022-10-10T05:54:15.984Z,99.99
2022-10-10T05:55:15.967Z,99.99
2022-10-10T05:56:15.701Z,99.99
2022-10-10T05:57:18.922Z,99.99
2022-10-10T05:58:15.676Z,99.99
2022-10-10T05:59:16.534Z,99.99
2022-10-10T06:00:16.780Z,99.99
2022-10-10T06:01:16.513Z,99.99
2022-10-10T06:02:16.908Z,99.99
2022-10-10T06:03:16.482Z,99.99
2022-10-10T06:04:16.467Z,99.99
2022-10-10T06:05:16.712Z,99.99
2022-10-10T06:06:16.699Z,99.99
2022-10-10T06:07:16.426Z,99.99
2022-10-10T06:08:16.417Z,99.99
2022-10-10T06:09:16.657Z,99.99
2022-10-10T06:10:16.646Z,99.99
2022-10-10T06:11:16.374Z,99.99
2022-10-10T06:12:16.619Z,99.99
2022-10-10T06:13:19.238Z,99.99
2022-10-10T06:14:16.335Z,99.99
2022-10-10T06:15:16.576Z,99.99
2022-10-10T06:16:16.309Z,99.99
2022-10-10T06:17:16.549Z,99.99
2022-10-10T06:18:16.542Z,99.99
2022-10-10T06:19:17.703Z,99.99
2022-10-10T06:20:16.512Z,99.99
2022-10-10T06:21:16.689Z,99.99
2022-10-10T06:22:16.915Z,99.99
2022-10-10T06:23:16.902Z,99.99
2022-10-10T06:24:16.630Z,99.99
2022-10-10T06:25:41.656Z,99.99
2022-10-10T06:26:16.606Z,99.74
2022-10-10T06:27:16.595Z,99.74
2022-10-10T06:28:16.926Z,99.36
2022-10-10T06:29:16.879Z,99.55
2022-10-10T06:30:16.810Z,99.65
2022-10-10T06:31:16.545Z,99.99
2022-10-10T06:32:16.785Z,99.84
2022-10-10T06:33:16.773Z,99.46
2022-10-10T06:34:16.765Z,99.17
2022-10-10T06:35:16.490Z,98.79
2022-10-10T06:36:16.738Z,98.88
2022-10-10T06:37:16.465Z,99.08
2022-10-10T06:38:16.713Z,99.27
2022-10-10T06:39:16.699Z,99.93
2022-10-10T06:40:16.680Z,99.99
2022-10-10T06:41:16.677Z,99.99
2022-10-10T06:42:16.405Z,99.36
2022-10-10T06:43:17.487Z,99.27
2022-10-10T06:44:17.237Z,99.55
2022-10-10T06:45:17.512Z,99.74
2022-10-10T06:46:17.196Z,98.79
2022-10-10T06:47:17.440Z,98.88
2022-10-10T06:48:17.187Z,98.13
2022-10-10T06:49:17.168Z,97.55
2022-10-10T06:50:17.155Z,97.84
2022-10-10T06:51:17.386Z,97.65
2022-10-10T06:52:17.385Z,97.55
2022-10-10T06:53:17.363Z,97.27
2022-10-10T06:54:17.348Z,97.27
2022-10-10T06:55:17.086Z,97.27
2022-10-10T06:56:17.342Z,97.65
2022-10-10T06:57:17.315Z,97.46
2022-10-10T06:58:17.042Z,97.27
2022-10-10T06:59:17.030Z,96.31
2022-10-10T07:00:17.029Z,96.7
2022-10-10T07:01:17.410Z,96.41
2022-10-10T07:02:17.252Z,96.79
2022-10-10T07:03:16.978Z,96.79
2022-10-10T07:04:17.220Z,96.7
2022-10-10T07:05:16.953Z,96.7
2022-10-10T07:06:17.196Z,96.12
2022-10-10T07:07:17.185Z,95.84
2022-10-10T07:08:16.917Z,95.36
2022-10-10T07:09:17.162Z,95.46
2022-10-10T07:10:16.891Z,95.36
2022-10-10T07:11:17.132Z,95.17
2022-10-10T07:12:16.861Z,95.56
2022-10-10T07:13:16.853Z,96.03
2022-10-10T07:14:16.839Z,96.03
2022-10-10T07:15:16.825Z,96.12
2022-10-10T07:16:17.072Z,96.03
2022-10-10T07:17:17.109Z,96.03
2022-10-10T07:18:17.046Z,96.12
2022-10-10T07:19:16.774Z,95.94
2022-10-10T07:20:16.766Z,96.03
2022-10-10T07:21:16.748Z,95.27
2022-10-10T07:22:16.998Z,95.17
2022-10-10T07:23:16.994Z,95.75
2022-10-10T07:24:16.713Z,95.17
2022-10-10T07:25:16.960Z,95.08
2022-10-10T07:26:16.947Z,94.6
2022-10-10T07:27:16.937Z,94.7
2022-10-10T07:28:17.067Z,94.6
2022-10-10T07:29:16.649Z,94.89
2022-10-10T07:30:16.894Z,94.74
2022-10-10T07:31:16.625Z,95.12
2022-10-10T07:32:16.869Z,95.32
2022-10-10T07:33:16.951Z,95.27
2022-10-10T07:34:16.592Z,94.6
2022-10-10T07:35:16.576Z,94.51
2022-10-10T07:36:16.826Z,93.94
2022-10-10T07:37:16.556Z,94.6
2022-10-10T07:38:16.803Z,94.51
2022-10-10T07:39:19.566Z,94.6
2022-10-10T07:40:16.778Z,94.32
2022-10-10T07:41:16.502Z,94.79
2022-10-10T07:42:16.746Z,93.98
2022-10-10T07:43:16.478Z,93.74
2022-10-10T07:44:16.470Z,93.84
2022-10-10T07:45:16.448Z,93.41
2022-10-10T07:46:16.438Z,93.55
2022-10-10T07:47:16.679Z,93.55
2022-10-10T07:48:16.670Z,93.65
2022-10-10T07:49:16.706Z,93.98
2022-10-10T07:50:16.388Z,94.22
2022-10-10T07:51:16.637Z,93.74
2022-10-10T07:52:16.361Z,93.94
2022-10-10T07:53:16.353Z,94.42
2022-10-10T07:54:16.590Z,94.56
2022-10-10T07:55:16.577Z,94.74
2022-10-10T07:56:16.568Z,95.22
2022-10-10T07:57:16.555Z,95.12
2022-10-10T07:58:16.542Z,95.22
2022-10-10T07:59:16.529Z,94.37
2022-10-10T08:00:16.520Z,94.65
2022-10-10T08:01:16.247Z,94.93
2022-10-10T08:02:16.656Z,95.89
2022-10-10T08:03:16.224Z,95.98
2022-10-10T08:04:16.466Z,95.41
2022-10-10T08:05:16.506Z,94.93
2022-10-10T08:06:16.445Z,94.65
2022-10-10T08:07:16.433Z,94.93
2022-10-10T08:08:16.415Z,93.13
2022-10-10T08:09:16.149Z,93.32
2022-10-10T08:10:16.138Z,93.13
2022-10-10T08:11:16.129Z,93.22
2022-10-10T08:12:16.369Z,93.22
2022-10-10T08:13:16.107Z,92.74
2022-10-10T08:14:16.350Z,92.74
2022-10-10T08:15:16.109Z,92.69
2022-10-10T08:16:16.139Z,92.69
2022-10-10T08:17:16.055Z,92.32
2022-10-10T08:18:16.037Z,91.94
2022-10-10T08:19:16.021Z,91.84
2022-10-10T08:20:16.024Z,91.55
2022-10-10T08:21:16.322Z,91.74
2022-10-10T08:22:16.248Z,91.94
2022-10-10T08:23:16.395Z,91.36
2022-10-10T08:24:16.225Z,91.36
2022-10-10T08:25:16.213Z,90.08
2022-10-10T08:26:16.302Z,89.69
2022-10-10T08:27:15.931Z,89.5
2022-10-10T08:28:16.336Z,88.84
2022-10-10T08:29:15.934Z,88.64
2022-10-10T08:30:15.902Z,88.74
2022-10-10T08:31:16.147Z,89.4
2022-10-10T08:32:16.134Z,89.22
2022-10-10T08:33:16.117Z,88.74
2022-10-10T08:34:16.110Z,88.84
2022-10-10T08:35:15.838Z,88.55
2022-10-10T08:36:16.087Z,88.45
2022-10-10T08:37:16.129Z,89.03
2022-10-10T08:38:15.806Z,88.93
2022-10-10T08:39:15.804Z,89.4
2022-10-10T08:40:16.051Z,89.79
2022-10-10T08:41:16.026Z,89.31
2022-10-10T08:42:16.017Z,89.89
2022-10-10T08:43:15.747Z,89.22
2022-10-10T08:44:15.989Z,89.12
2022-10-10T08:45:15.982Z,88.84
2022-10-10T08:46:15.964Z,88.45
2022-10-10T08:47:15.961Z,88.55
2022-10-10T08:48:15.941Z,89.22
2022-10-10T08:49:16.541Z,89.03
2022-10-10T08:50:15.928Z,89.6
2022-10-10T08:51:15.908Z,89.31
2022-10-10T08:52:15.896Z,89.6
2022-10-10T08:53:15.931Z,89.89
2022-10-10T08:54:16.721Z,90.26
2022-10-10T08:55:16.452Z,91.03
2022-10-10T08:56:16.442Z,90.64
2022-10-10T08:57:16.688Z,90.55
2022-10-10T08:58:16.678Z,89.98
2022-10-10T08:59:16.662Z,90.74
2022-10-10T09:00:16.722Z,90.74
2022-10-10T09:01:16.790Z,91.03
2022-10-10T09:02:23.638Z,90.84
2022-10-10T09:03:16.617Z,90.22
2022-10-10T09:04:16.757Z,90.03
2022-10-10T09:05:16.601Z,90.79
2022-10-10T09:06:16.329Z,90.88
2022-10-10T09:07:16.321Z,90.03
2022-10-10T09:08:16.316Z,90.22
2022-10-10T09:09:16.602Z,89.93
2022-10-10T09:10:16.547Z,90.5
2022-10-10T09:11:16.530Z,90.22
2022-10-10T09:12:16.517Z,90.31
2022-10-10T09:13:16.502Z,90.03
2022-10-10T09:14:16.504Z,90.22
2022-10-10T09:15:16.228Z,90.03
2022-10-10T09:16:16.473Z,90.22
2022-10-10T09:17:16.210Z,90.41
2022-10-10T09:18:16.212Z,90.03
2022-10-10T09:19:20.371Z,89.83
2022-10-10T09:20:16.437Z,89.74
2022-10-10T09:21:16.160Z,89.54
2022-10-10T09:22:16.429Z,89.64
2022-10-10T09:23:16.138Z,90.41
2022-10-10T09:24:16.386Z,89.93
2022-10-10T09:25:16.420Z,90.31
2022-10-10T09:26:16.111Z,90.22
2022-10-10T09:27:16.350Z,90.5
2022-10-10T09:28:16.207Z,90.07
2022-10-10T09:29:16.332Z,90.55
2022-10-10T09:30:16.069Z,90.26
2022-10-10T09:31:16.309Z,90.26
2022-10-10T09:32:16.298Z,89.78
2022-10-10T09:33:16.285Z,89.12
2022-10-10T09:34:16.295Z,89.06
2022-10-10T09:35:16.266Z,88.2
2022-10-10T09:36:16.257Z,88.11
2022-10-10T09:37:45.595Z,86.68
2022-10-10T09:38:16.339Z,87.06
2022-10-10T09:39:16.324Z,86.39
2022-10-10T09:40:16.063Z,86.24
2022-10-10T09:41:16.355Z,85.67
2022-10-10T09:42:16.052Z,86.15
2022-10-10T09:43:16.280Z,85.86
2022-10-10T09:44:16.277Z,86.34
2022-10-10T09:45:16.265Z,85.48
2022-10-10T09:46:16.257Z,85.24
2022-10-10T09:47:15.997Z,85.42
2022-10-10T09:48:16.235Z,85.33
2022-10-10T09:49:15.968Z,84.85
2022-10-10T09:50:16.347Z,83.99
2022-10-10T09:51:15.948Z,84.19
2022-10-10T09:52:16.198Z,83.84
2022-10-10T09:53:16.191Z,84.42
2022-10-10T09:54:16.176Z,83.75
2022-10-10T09:55:16.171Z,83.75
2022-10-10T09:56:16.156Z,82.83
2022-10-10T09:57:16.199Z,83.03
2022-10-10T09:58:15.881Z,82.26
2022-10-10T09:59:16.132Z,80.35
2022-10-10T10:00:15.914Z,79.96
2022-10-10T10:01:15.997Z,79.49
2022-10-10T10:02:15.845Z,77.38
2022-10-10T10:03:15.835Z,77.42
2022-10-10T10:04:32.167Z,77.51
2022-10-10T10:05:15.818Z,78.19
2022-10-10T10:06:16.064Z,78.09
2022-10-10T10:07:16.065Z,77.9
2022-10-10T10:08:16.044Z,77.42
2022-10-10T10:09:15.784Z,77.23
2022-10-10T10:10:15.854Z,76.94
2022-10-10T10:11:16.026Z,76.46
2022-10-10T10:12:15.757Z,76.6
2022-10-10T10:13:16.059Z,76.89
2022-10-10T10:14:15.737Z,76.6
2022-10-10T10:15:15.737Z,75.73
2022-10-10T10:16:15.732Z,74.87
2022-10-10T10:17:15.716Z,76.12
2022-10-10T10:18:15.964Z,76.21
2022-10-10T10:19:15.700Z,76.12
2022-10-10T10:20:15.953Z,75.64
2022-10-10T10:21:15.687Z,75.64
2022-10-10T10:22:24.366Z,75.73
2022-10-10T10:23:15.924Z,75.45
2022-10-10T10:24:15.911Z,75.64
2022-10-10T10:25:15.905Z,74.87
2022-10-10T10:26:15.895Z,74.4
2022-10-10T10:27:15.632Z,74.4
2022-10-10T10:28:15.760Z,74.4
2022-10-10T10:29:16.020Z,74.4
2022-10-10T10:30:15.862Z,73.63
2022-10-10T10:31:15.855Z,73.28
2022-10-10T10:32:15.842Z,72.71
2022-10-10T10:33:15.597Z,72.9
2022-10-10T10:34:15.829Z,72.19
2022-10-10T10:35:15.849Z,71.84
2022-10-10T10:36:15.557Z,72.09
2022-10-10T10:37:17.533Z,71.81
2022-10-10T10:38:15.541Z,71.42
2022-10-10T10:39:15.534Z,71.33
2022-10-10T10:40:15.788Z,71.71
2022-10-10T10:41:15.772Z,72.19
2022-10-10T10:42:15.771Z,72.09
2022-10-10T10:43:15.757Z,72.86
2022-10-10T10:44:15.495Z,73.09
2022-10-10T10:45:15.791Z,71.84
2022-10-10T10:46:15.735Z,70.98
2022-10-10T10:47:15.472Z,71.17
2022-10-10T10:48:15.464Z,72.23
2022-10-10T10:49:15.711Z,71.56
2022-10-10T10:50:15.452Z,71.46
2022-10-10T10:51:15.695Z,70.98
2022-10-10T10:52:15.690Z,69.74
2022-10-10T10:53:15.683Z,69.83
2022-10-10T10:54:15.677Z,69.6
2022-10-10T10:55:15.665Z,69.51
2022-10-10T10:56:15.411Z,69.7
2022-10-10T10:57:45.719Z,70.37
2022-10-10T11:02:06.362Z,69.6
2022-10-10T11:05:15.473Z,69.7
2022-10-10T11:05:46.557Z,71.23
2022-10-10T11:07:17.030Z,70.85
2022-10-10T11:07:46.641Z,70.47
2022-10-10T11:08:46.486Z,70.79
2022-10-10T11:09:53.677Z,69.35
2022-10-10T11:10:46.211Z,69.07
2022-10-10T11:11:46.475Z,69.26
2022-10-10T11:12:46.457Z,70.18
2022-10-10T11:13:46.454Z,69.23
2022-10-10T11:14:46.437Z,69.17
2022-10-10T11:16:10.752Z,69.54
2022-10-10T11:17:01.510Z,68.97
2022-10-10T11:18:01.529Z,68.11
2022-10-10T11:19:01.494Z,69.83
2022-10-10T11:20:01.487Z,69.7
2022-10-10T11:21:02.266Z,69.8
2022-10-10T11:22:02.221Z,69.89
2022-10-10T11:23:06.604Z,71.52
2022-10-10T11:32:27.495Z,71.52
2022-10-10T11:33:27.778Z,71.04
2022-10-10T11:34:27.687Z,71.58
2022-10-10T11:35:27.431Z,71.48
2022-10-10T11:36:27.421Z,72.16
2022-10-10T11:37:27.669Z,73.69
2022-10-10T11:38:27.658Z,73.3
2022-10-10T11:39:27.653Z,73.5
2022-10-10T11:40:27.646Z,73.79
2022-10-10T11:41:27.639Z,73.79
2022-10-10T11:42:27.371Z,73.79
2022-10-10T11:43:27.621Z,74.36
2022-10-10T11:44:27.617Z,74.41
2022-10-10T11:45:27.607Z,74.32
2022-10-10T11:46:27.597Z,74.22
2022-10-10T11:47:27.589Z,74.41
2022-10-10T11:48:27.606Z,75.09
2022-10-10T11:49:27.604Z,75.41
2022-10-10T11:50:27.569Z,76.42
2022-10-10T11:51:27.555Z,75.56
2022-10-10T11:52:42.858Z,75.47
2022-10-10T11:53:27.298Z,75.56
2022-10-10T11:54:27.539Z,75.18
2022-10-10T11:55:27.271Z,75.27
2022-10-10T11:56:27.265Z,75.27
2022-10-10T11:57:27.511Z,75.7
2022-10-10T11:58:27.505Z,76.08
2022-10-10T11:59:27.238Z,75.7
2022-10-10T12:00:27.230Z,75.41
2022-10-10T12:01:27.483Z,75.79
2022-10-10T12:02:30.197Z,75.41
2022-10-10T12:03:27.210Z,73.88
2022-10-10T12:04:27.496Z,74.26
2022-10-10T12:05:27.467Z,74.77
2022-10-10T12:06:27.440Z,75.16
2022-10-10T12:07:27.175Z,75.54
2022-10-10T12:08:27.169Z,75.26
2022-10-10T12:09:27.415Z,73.82
2022-10-10T12:10:27.156Z,74.3
2022-10-10T12:11:27.397Z,74.65
2022-10-10T12:12:27.396Z,74.74
2022-10-10T12:13:27.380Z,75.12
2022-10-10T12:14:27.378Z,75.7
2022-10-10T12:15:27.126Z,76.46
2022-10-10T12:16:32.505Z,76.6
2022-10-10T12:17:27.096Z,76.02
2022-10-10T12:18:27.097Z,74.58
2022-10-10T12:19:27.335Z,74.97
2022-10-10T12:20:27.099Z,75.45
2022-10-10T12:21:27.358Z,75.41
2022-10-10T12:22:27.319Z,75.73
2022-10-10T12:23:27.310Z,75.7
2022-10-10T12:24:27.302Z,75.45
2022-10-10T12:25:27.333Z,75.6
2022-10-10T12:26:27.290Z,75.22
2022-10-10T12:27:27.023Z,75.41
2022-10-10T12:28:27.075Z,75.6
2022-10-10T12:29:27.258Z,75.41
2022-10-10T12:30:27.015Z,75.73
2022-10-10T12:31:27.243Z,75.73
2022-10-10T12:32:27.239Z,76.5
2022-10-10T12:33:27.223Z,76.6
2022-10-10T12:34:27.220Z,76.98
2022-10-10T12:35:27.214Z,76.89
2022-10-10T12:36:27.228Z,75.93
2022-10-10T12:37:27.224Z,76.4
2022-10-10T12:38:27.206Z,76.4
2022-10-10T12:39:27.184Z,75.73
2022-10-10T12:40:26.917Z,75.64
2022-10-10T12:41:26.911Z,75.93
2022-10-10T12:42:26.900Z,76.12
2022-10-10T12:43:27.153Z,75.83
2022-10-10T12:44:27.140Z,76.02
2022-10-10T12:45:26.883Z,76.12
2022-10-10T12:46:27.128Z,75.6
2022-10-10T12:48:00.198Z,76.46
2022-10-10T12:48:27.119Z,76.18
2022-10-10T12:49:27.129Z,76.71
2022-10-10T12:50:27.094Z,77.09
2022-10-10T12:51:27.098Z,77.67
2022-10-10T12:52:26.850Z,77.67
2022-10-10T12:53:27.118Z,78.24
2022-10-10T12:54:27.101Z,78.53
2022-10-10T12:55:27.067Z,78.81
2022-10-10T12:56:27.049Z,79.2
2022-10-10T12:57:27.050Z,79.25
2022-10-10T12:58:30.103Z,79.96
2022-10-10T12:59:27.025Z,79.83
2022-10-10T13:00:27.014Z,80.4
2022-10-10T13:01:27.154Z,80.79
2022-10-10T13:02:26.744Z,80.92
2022-10-10T13:03:26.997Z,81.21
2022-10-10T13:04:26.729Z,80.92
2022-10-10T13:05:26.975Z,80.82
2022-10-10T13:06:26.738Z,80.25
2022-10-10T13:07:26.705Z,80.54
2022-10-10T13:08:26.981Z,80.63
2022-10-10T13:09:29.974Z,80.82
2022-10-10T13:10:26.935Z,80.73
2022-10-10T13:11:26.935Z,80.63
2022-10-10T13:12:26.935Z,81.02
2022-10-10T13:13:26.654Z,81.02
2022-10-10T13:14:26.645Z,80.73
2022-10-10T13:15:26.640Z,80.48
2022-10-10T13:16:29.872Z,80.73
2022-10-10T13:17:26.625Z,80.58
2022-10-10T13:18:26.870Z,80.87
2022-10-10T13:19:26.863Z,80.87
2022-10-10T13:20:26.852Z,80.96
2022-10-10T13:21:26.848Z,81.15
2022-10-10T13:22:26.839Z,81.25
2022-10-10T13:23:26.833Z,81.44
2022-10-10T13:24:26.853Z,81.34
2022-10-10T13:25:26.837Z,81.34
2022-10-10T13:26:26.548Z,80.87